Time;durP1;ratioP1;P1;durP2;ratioP2;P2;SDS_P1;SDS_P2;PMS_P1;PMS_P2;Temp;Humidity;BMP_temperature;BMP_pressure;BME280_temperature;BME280_humidity;BME280_pressure;Samples;Min_cycle;Max_cycle;Signal;HPM_P1;HPM_P2
2022/10/30 04:01:11;;;;;;;0.90;0.90;;;17.70;72.60;;;;;;5920753;22;20561;-74
2022/10/30 04:03:38;;;;;;;0.80;0.80;;;17.70;72.60;;;;;;5078599;28;20494;-74
2022/10/30 04:06:05;;;;;;;1.00;1.00;;;17.70;72.50;;;;;;5079656;28;20477;-74
2022/10/30 04:08:32;;;;;;;1.10;1.10;;;17.70;72.50;;;;;;5079847;28;20481;-74
2022/10/30 04:10:59;;;;;;;0.90;0.90;;;17.60;72.70;;;;;;5079618;28;20461;-74
2022/10/30 04:13:25;;;;;;;0.80;0.80;;;17.70;72.70;;;;;;5077104;28;20811;-73
2022/10/30 04:15:53;;;;;;;0.93;0.93;;;17.70;72.70;;;;;;5078723;28;20454;-74
2022/10/30 04:18:21;;;;;;;0.80;0.80;;;17.60;72.60;;;;;;5077005;28;20454;-73
2022/10/30 04:20:48;;;;;;;1.00;0.90;;;17.60;72.70;;;;;;5076605;28;20473;-74
2022/10/30 04:23:16;;;;;;;1.00;1.00;;;17.50;72.80;;;;;;5076982;28;20488;-74
2022/10/30 04:25:43;;;;;;;0.83;0.83;;;17.50;72.90;;;;;;5076959;28;20442;-74
2022/10/30 04:28:10;;;;;;;1.63;1.00;;;17.40;73.20;;;;;;5076550;28;20944;-74
2022/10/30 04:30:38;;;;;;;0.90;0.80;;;17.40;73.20;;;;;;5076874;28;20449;-73
2022/10/30 04:33:07;;;;;;;1.10;1.03;;;17.30;73.60;;;;;;5076986;28;20449;-74
2022/10/30 04:35:37;;;;;;;0.90;0.90;;;17.30;73.70;;;;;;5077052;28;20448;-74
2022/10/30 04:38:05;;;;;;;0.97;0.87;;;17.20;73.90;;;;;;5076558;28;20936;-74
2022/10/30 04:40:34;;;;;;;0.80;0.80;;;17.10;74.10;;;;;;5077333;28;20452;-74
2022/10/30 04:43:01;;;;;;;0.97;0.97;;;17.10;74.30;;;;;;5077079;28;20488;-74
2022/10/30 04:45:28;;;;;;;0.80;0.80;;;17.10;74.40;;;;;;5076837;28;20940;-74
2022/10/30 04:48:01;;;;;;;1.00;0.90;;;17.00;74.50;;;;;;5076967;28;20450;-74
2022/10/30 04:50:28;;;;;;;0.73;0.73;;;17.00;74.50;;;;;;5077437;28;20465;-74
2022/10/30 04:53:01;;;;;;;1.03;0.90;;;17.00;74.10;;;;;;5077115;28;20809;-74
2022/10/30 04:55:28;;;;;;;0.80;0.80;;;17.00;74.30;;;;;;5077635;28;20437;-74
2022/10/30 04:57:56;;;;;;;1.20;1.10;;;17.00;74.20;;;;;;5077438;28;20445;-74
2022/10/30 05:00:23;;;;;;;1.20;1.10;;;17.00;74.30;;;;;;5077111;28;20494;-74
2022/10/30 05:02:49;;;;;;;1.03;0.93;;;17.00;74.10;;;;;;5076581;28;20461;-74
2022/10/30 05:05:16;;;;;;;1.00;0.80;;;17.00;74.10;;;;;;5077441;28;20468;-74
2022/10/30 05:07:43;;;;;;;0.70;0.70;;;17.00;74.10;;;;;;5077007;28;20457;-74
2022/10/30 05:10:13;;;;;;;0.90;0.90;;;16.90;74.20;;;;;;5076300;28;20481;-74
2022/10/30 05:12:41;;;;;;;0.90;0.90;;;16.90;74.20;;;;;;5076512;28;20474;-74
2022/10/30 05:15:09;;;;;;;1.33;1.23;;;16.90;74.40;;;;;;5076768;28;20476;-74
2022/10/30 05:17:35;;;;;;;0.90;0.90;;;16.90;74.40;;;;;;5077682;28;20979;-74
2022/10/30 05:20:02;;;;;;;0.80;0.80;;;16.90;74.50;;;;;;5077129;28;20445;-74
2022/10/30 05:22:29;;;;;;;0.90;0.90;;;16.80;74.70;;;;;;5077362;28;20483;-74
2022/10/30 05:24:55;;;;;;;0.90;0.90;;;16.80;74.70;;;;;;5077400;28;20477;-74
2022/10/30 05:27:23;;;;;;;0.90;0.90;;;16.70;74.70;;;;;;5077067;28;20937;-74
2022/10/30 05:29:50;;;;;;;1.13;0.90;;;16.70;74.80;;;;;;5077567;28;20457;-73
2022/10/30 05:32:17;;;;;;;0.77;0.77;;;16.70;74.80;;;;;;5077774;28;20515;-74
2022/10/30 05:34:43;;;;;;;1.07;0.90;;;16.70;74.80;;;;;;5077691;28;20442;-74
2022/10/30 05:37:10;;;;;;;0.90;0.90;;;16.60;74.80;;;;;;5077722;28;20461;-74
2022/10/30 05:39:37;;;;;;;0.90;0.90;;;16.60;74.90;;;;;;5077465;28;20442;-74
2022/10/30 05:42:04;;;;;;;0.93;0.83;;;16.60;74.90;;;;;;5077173;28;20477;-74
2022/10/30 05:44:32;;;;;;;0.77;0.77;;;16.60;75.10;;;;;;5077203;28;20485;-74
2022/10/30 05:46:59;;;;;;;0.80;0.80;;;16.60;75.10;;;;;;5077456;28;20449;-74
2022/10/30 05:49:25;;;;;;;0.90;0.90;;;16.60;74.90;;;;;;5078543;28;20883;-73
2022/10/30 05:51:52;;;;;;;1.07;1.00;;;16.60;75.10;;;;;;5077074;28;20527;-73
2022/10/30 05:54:19;;;;;;;1.43;0.80;;;16.50;75.00;;;;;;5077193;28;20804;-74
2022/10/30 05:56:45;;;;;;;1.20;1.10;;;16.60;75.00;;;;;;5077538;28;20449;-74
2022/10/30 05:59:12;;;;;;;1.00;1.00;;;16.50;74.90;;;;;;5077467;28;20449;-74
2022/10/30 06:01:40;;;;;;;1.30;1.20;;;16.50;74.90;;;;;;5077409;28;20473;-74
2022/10/30 06:04:08;;;;;;;1.27;1.10;;;16.60;74.80;;;;;;5077926;28;20481;-74
2022/10/30 06:06:34;;;;;;;1.47;1.10;;;16.60;74.70;;;;;;5077495;28;20446;-74
2022/10/30 06:09:01;;;;;;;1.20;1.00;;;16.60;74.70;;;;;;5077733;28;20924;-74
2022/10/30 06:11:28;;;;;;;0.90;0.90;;;16.60;74.60;;;;;;5077463;28;20473;-74
2022/10/30 06:13:54;;;;;;;0.90;0.90;;;16.50;74.80;;;;;;5077795;28;20449;-74
2022/10/30 06:16:21;;;;;;;1.10;1.00;;;16.50;74.80;;;;;;5077377;28;20523;-74
2022/10/30 06:18:49;;;;;;;0.90;0.90;;;16.50;74.80;;;;;;5077391;28;20461;-73
2022/10/30 06:21:16;;;;;;;1.10;1.00;;;16.50;75.00;;;;;;5076183;28;21036;-73
2022/10/30 06:23:42;;;;;;;1.13;1.03;;;16.50;74.90;;;;;;5077012;28;20489;-73
2022/10/30 06:26:09;;;;;;;0.90;0.87;;;16.50;75.00;;;;;;5077549;28;20460;-73
2022/10/30 06:28:36;;;;;;;1.03;0.90;;;16.50;74.40;;;;;;5079213;28;20458;-73
2022/10/30 06:31:02;;;;;;;0.90;0.90;;;16.60;74.40;;;;;;5078595;28;20477;-73
2022/10/30 06:33:29;;;;;;;0.90;0.90;;;16.70;73.00;;;;;;5077148;28;20941;-73
2022/10/30 06:35:57;;;;;;;1.27;0.90;;;16.80;73.70;;;;;;5077579;28;20460;-73
2022/10/30 06:38:24;;;;;;;0.93;0.90;;;16.80;74.00;;;;;;5076797;28;20458;-73
2022/10/30 06:40:51;;;;;;;0.80;0.80;;;17.00;73.50;;;;;;5077360;28;20469;-73
2022/10/30 06:43:17;;;;;;;1.40;0.80;;;17.30;73.10;;;;;;5077471;28;20921;-73
2022/10/30 06:45:44;;;;;;;0.80;0.80;;;17.90;71.60;;;;;;5077719;28;20446;-73
2022/10/30 06:48:11;;;;;;;1.60;1.00;;;18.90;69.50;;;;;;5077601;28;20837;-72
2022/10/30 06:50:37;;;;;;;0.87;0.87;;;20.10;66.10;;;;;;5077094;28;20457;-73
2022/10/30 06:53:05;;;;;;;0.90;0.80;;;21.20;62.70;;;;;;5077710;28;20971;-73
2022/10/30 06:55:32;;;;;;;0.80;0.80;;;22.10;60.70;;;;;;5077572;28;20442;-73
2022/10/30 06:57:59;;;;;;;0.80;0.80;;;23.10;58.50;;;;;;5077295;28;20453;-73
2022/10/30 07:00:26;;;;;;;0.80;0.80;;;24.20;56.00;;;;;;5077993;28;20452;-73
2022/10/30 07:02:57;;;;;;;0.97;0.87;;;25.00;53.20;;;;;;5076617;28;20470;-74
2022/10/30 07:05:24;;;;;;;1.07;0.97;;;26.10;51.40;;;;;;5076273;28;20477;-74
2022/10/30 07:07:50;;;;;;;0.70;0.70;;;27.20;49.60;;;;;;5076220;28;20450;-74
2022/10/30 07:10:18;;;;;;;0.90;0.90;;;27.70;48.70;;;;;;5075643;28;20457;-73
2022/10/30 07:12:52;;;;;;;0.70;0.70;;;28.30;47.20;;;;;;5075833;28;20520;-74
2022/10/30 07:15:18;;;;;;;0.87;0.87;;;28.20;46.20;;;;;;5076007;28;20430;-74
2022/10/30 07:17:52;;;;;;;0.83;0.83;;;28.00;46.90;;;;;;5075942;28;20442;-73
2022/10/30 07:20:19;;;;;;;1.20;1.10;;;27.90;47.40;;;;;;5076552;28;20434;-74
2022/10/30 07:22:46;;;;;;;0.90;0.90;;;27.60;46.80;;;;;;5075953;28;20465;-74
2022/10/30 07:25:13;;;;;;;0.87;0.87;;;27.00;46.70;;;;;;5075476;28;20481;-74
2022/10/30 07:27:44;;;;;;;0.77;0.77;;;26.20;48.20;;;;;;5075460;28;20450;-74
2022/10/30 07:30:12;;;;;;;0.70;0.70;;;25.50;49.10;;;;;;5075119;28;20915;-73
2022/10/30 07:32:38;;;;;;;0.80;0.80;;;25.30;50.10;;;;;;5075874;28;20466;-73
2022/10/30 07:35:06;;;;;;;0.90;0.90;;;24.60;51.90;;;;;;5075808;28;20445;-73
2022/10/30 07:37:33;;;;;;;0.70;0.70;;;24.40;52.10;;;;;;5075020;28;20941;-74
2022/10/30 07:40:00;;;;;;;0.90;0.90;;;24.50;52.10;;;;;;5074270;28;20457;-73
2022/10/30 07:42:26;;;;;;;0.80;0.70;;;24.80;53.40;;;;;;5074258;28;20476;-73
2022/10/30 07:44:54;;;;;;;1.50;1.00;;;25.30;52.20;;;;;;5074016;28;20481;-74
2022/10/30 07:47:21;;;;;;;1.00;1.00;;;25.90;50.90;;;;;;5074414;28;20449;-74
2022/10/30 07:49:48;;;;;;;0.90;0.90;;;26.80;49.80;;;;;;5074823;28;20808;-73
2022/10/30 07:52:15;;;;;;;0.70;0.70;;;27.50;48.80;;;;;;5074527;28;20473;-74
2022/10/30 07:54:41;;;;;;;0.90;0.90;;;28.30;47.90;;;;;;5073687;28;20815;-74
2022/10/30 07:57:08;;;;;;;1.97;0.80;;;29.20;46.30;;;;;;5073750;28;20449;-74
2022/10/30 07:59:35;;;;;;;0.90;0.90;;;29.80;45.20;;;;;;5073861;28;20449;-74
2022/10/30 08:02:03;;;;;;;0.80;0.80;;;30.60;43.90;;;;;;5073277;28;20957;-74
2022/10/30 08:04:29;;;;;;;0.90;0.90;;;31.60;42.50;;;;;;5073607;28;20481;-73
2022/10/30 08:06:56;;;;;;;0.80;0.80;;;32.30;41.50;;;;;;5073797;28;20465;-74
2022/10/30 08:09:23;;;;;;;0.70;0.70;;;32.20;41.80;;;;;;5076871;28;20457;-74
2022/10/30 08:11:49;;;;;;;0.70;0.70;;;31.40;41.90;;;;;;5077961;28;20473;-74
2022/10/30 08:14:16;;;;;;;0.80;0.80;;;30.00;44.50;;;;;;5075978;28;20438;-74
2022/10/30 08:16:43;;;;;;;1.00;0.90;;;29.10;46.50;;;;;;5075768;28;20449;-74
2022/10/30 08:19:11;;;;;;;0.90;0.73;;;27.70;47.80;;;;;;5075900;28;20457;-71
2022/10/30 08:21:37;;;;;;;0.60;0.60;;;26.80;50.30;;;;;;5076268;28;20469;-74
2022/10/30 08:24:04;;;;;;;0.80;0.80;;;26.30;51.40;;;;;;5078367;28;20456;-74
2022/10/30 08:26:31;;;;;;;0.70;0.70;;;25.60;52.60;;;;;;5078049;28;20531;-74
2022/10/30 08:28:58;;;;;;;0.70;0.70;;;24.40;54.50;;;;;;5079831;28;20450;-74
2022/10/30 08:31:25;;;;;;;0.80;0.80;;;23.50;56.50;;;;;;5079058;28;20998;-74
2022/10/30 08:33:51;;;;;;;0.70;0.70;;;23.00;58.50;;;;;;5078685;28;20442;-74
2022/10/30 08:36:19;;;;;;;0.90;0.90;;;22.80;60.40;;;;;;5077755;28;20442;-73
2022/10/30 08:38:46;;;;;;;1.27;0.80;;;22.80;60.60;;;;;;5076368;28;20442;-74
2022/10/30 08:41:13;;;;;;;0.80;0.80;;;22.90;60.70;;;;;;5077991;28;20502;-73
2022/10/30 08:43:39;;;;;;;0.77;0.77;;;22.50;58.90;;;;;;5079333;28;20446;-74
2022/10/30 08:46:06;;;;;;;0.80;0.70;;;22.30;62.60;;;;;;5080920;28;20481;-74
2022/10/30 08:48:33;;;;;;;0.70;0.60;;;22.30;63.30;;;;;;5079632;28;20441;-74
2022/10/30 08:51:00;;;;;;;0.70;0.70;;;22.20;64.10;;;;;;5080853;28;20988;-74
2022/10/30 08:53:28;;;;;;;0.80;0.70;;;22.00;64.20;;;;;;5079369;28;20827;-74
2022/10/30 08:55:55;;;;;;;0.90;0.90;;;21.90;64.00;;;;;;5077278;28;20468;-73
2022/10/30 08:58:22;;;;;;;0.80;0.80;;;22.00;60.10;;;;;;5077628;28;20446;-73
2022/10/30 09:00:48;;;;;;;0.90;0.90;;;21.90;60.00;;;;;;5076686;28;20470;-74
2022/10/30 09:03:15;;;;;;;0.80;0.80;;;21.90;62.50;;;;;;5076789;28;20430;-74
2022/10/30 09:05:42;;;;;;;0.80;0.80;;;21.90;62.20;;;;;;5077713;28;20939;-74
2022/10/30 09:08:09;;;;;;;0.70;0.70;;;21.70;64.30;;;;;;5079627;28;20445;-73
2022/10/30 09:10:37;;;;;;;0.90;0.90;;;21.50;65.60;;;;;;5076743;28;20476;-74
2022/10/30 09:13:03;;;;;;;0.70;0.70;;;21.50;66.60;;;;;;5077585;28;20445;-74
2022/10/30 09:15:30;;;;;;;0.80;0.70;;;21.30;67.50;;;;;;5079119;28;20434;-73
2022/10/30 09:17:57;;;;;;;0.70;0.70;;;21.20;68.50;;;;;;5077983;28;20450;-74
2022/10/30 09:20:25;;;;;;;0.70;0.70;;;21.10;68.40;;;;;;5078345;28;20457;-73
2022/10/30 09:22:51;;;;;;;0.90;0.90;;;21.00;68.40;;;;;;5079133;28;20941;-74
2022/10/30 09:25:19;;;;;;;0.80;0.80;;;20.80;68.50;;;;;;5079240;28;20988;-74
2022/10/30 09:27:47;;;;;;;0.97;0.77;;;20.80;68.80;;;;;;5079656;28;20449;-74
2022/10/30 09:30:14;;;;;;;0.80;0.80;;;20.90;68.50;;;;;;5078754;28;20820;-74
2022/10/30 09:32:41;;;;;;;0.80;0.80;;;21.00;67.60;;;;;;5077293;28;20474;-74
2022/10/30 09:35:08;;;;;;;0.90;0.70;;;20.90;67.00;;;;;;5075808;28;20449;-74
2022/10/30 09:37:35;;;;;;;1.27;1.17;;;21.00;67.10;;;;;;5075967;28;20450;-74
2022/10/30 09:40:03;;;;;;;0.60;0.60;;;21.10;67.90;;;;;;5075839;28;20453;-73
2022/10/30 09:42:42;;;;;;;1.00;0.87;;;21.20;66.50;;;;;;5075822;28;20485;-74
2022/10/30 09:45:38;;;;;;;0.90;0.90;;;21.40;65.40;;;;;;5076510;28;20476;-73
2022/10/30 09:48:20;;;;;;;0.90;0.80;;;21.40;65.90;;;;;;5076421;28;20823;-74
2022/10/30 09:50:56;;;;;;;0.70;0.70;;;21.50;65.20;;;;;;5076048;28;20476;-74
2022/10/30 09:53:30;;;;;;;0.70;0.70;;;21.60;65.50;;;;;;5076429;28;20425;-74
2022/10/30 09:56:06;;;;;;;0.93;0.90;;;21.80;65.00;;;;;;5075067;28;20499;-75
2022/10/30 09:58:44;;;;;;;0.97;0.80;;;21.90;64.20;;;;;;5076083;28;20434;-74
2022/10/30 10:01:17;;;;;;;0.80;0.80;;;21.90;63.80;;;;;;5076486;28;20508;-74
2022/10/30 10:03:57;;;;;;;0.80;0.80;;;22.00;63.70;;;;;;5077459;28;20476;-74
2022/10/30 10:06:25;;;;;;;0.80;0.80;;;22.20;62.70;;;;;;5076677;28;20470;-74
2022/10/30 10:08:57;;;;;;;0.90;0.80;;;22.10;63.50;;;;;;5076293;28;20469;-74
2022/10/30 10:11:28;;;;;;;0.80;0.80;;;22.30;63.70;;;;;;5075385;28;20527;-73
2022/10/30 10:14:00;;;;;;;1.37;1.00;;;22.30;64.00;;;;;;5076762;28;20982;-73
2022/10/30 10:16:31;;;;;;;0.90;0.80;;;22.30;62.70;;;;;;5075435;28;20918;-73
2022/10/30 10:19:07;;;;;;;0.87;0.70;;;22.30;63.20;;;;;;5075764;28;20525;-74
2022/10/30 10:21:39;;;;;;;0.80;0.80;;;22.30;63.90;;;;;;5075998;28;20468;-74
2022/10/30 10:24:15;;;;;;;0.70;0.70;;;22.40;63.60;;;;;;5076461;28;20434;-71
2022/10/30 10:26:49;;;;;;;0.80;0.80;;;22.60;63.90;;;;;;5076116;28;20474;-74
2022/10/30 10:29:37;;;;;;;0.80;0.80;;;22.70;63.30;;;;;;5076935;28;20434;-74
2022/10/30 10:32:31;;;;;;;1.20;0.83;;;22.80;63.50;;;;;;5066871;28;20469;-74
2022/10/30 10:35:17;;;;;;;0.60;0.60;;;22.90;63.80;;;;;;5073338;28;20445;-75
2022/10/30 10:37:49;;;;;;;1.10;1.00;;;23.00;62.50;;;;;;5076968;28;20430;-74
2022/10/30 10:40:28;;;;;;;0.70;0.70;;;23.20;63.20;;;;;;5077034;28;20441;-75
2022/10/30 10:43:06;;;;;;;0.80;0.80;;;23.30;61.10;;;;;;5076664;28;20433;-74
2022/10/30 10:45:43;;;;;;;0.97;0.90;;;23.50;61.80;;;;;;5076741;28;20477;-75
2022/10/30 10:48:38;;;;;;;0.90;0.87;;;23.70;62.20;;;;;;5077740;28;20442;-75
2022/10/30 10:51:08;;;;;;;0.97;0.87;;;23.80;60.40;;;;;;5075262;28;20469;-73
2022/10/30 10:53:42;;;;;;;0.80;0.70;;;23.70;59.60;;;;;;5077357;28;20797;-73
2022/10/30 10:56:10;;;;;;;0.80;0.70;;;23.80;60.00;;;;;;5077579;28;20426;-73
2022/10/30 10:58:44;;;;;;;0.97;0.80;;;23.90;59.00;;;;;;5077680;28;20438;-73
2022/10/30 11:01:14;;;;;;;0.67;0.60;;;23.90;58.70;;;;;;5077227;28;20484;-73
2022/10/30 11:03:52;;;;;;;0.90;0.80;;;24.00;59.40;;;;;;5077390;28;20515;-73
2022/10/30 11:06:21;;;;;;;0.83;0.80;;;24.00;57.90;;;;;;5076925;28;20470;-74
2022/10/30 11:08:48;;;;;;;0.70;0.70;;;24.10;57.60;;;;;;5077192;28;20456;-75
2022/10/30 11:11:15;;;;;;;0.80;0.80;;;24.10;58.50;;;;;;5077147;28;20874;-75
2022/10/30 11:13:44;;;;;;;1.10;0.90;;;24.20;62.40;;;;;;5076376;28;20460;-74
2022/10/30 11:16:21;;;;;;;1.00;0.90;;;24.40;64.50;;;;;;5076391;28;20452;-75
2022/10/30 11:18:54;;;;;;;0.90;0.90;;;24.50;60.70;;;;;;5076596;28;20442;-74
2022/10/30 11:21:23;;;;;;;0.80;0.80;;;24.60;59.70;;;;;;5076299;28;20469;-75
2022/10/30 11:23:50;;;;;;;1.13;1.00;;;24.80;62.30;;;;;;5075901;28;20484;-75
2022/10/30 11:26:30;;;;;;;0.70;0.70;;;24.80;63.80;;;;;;5075364;28;20484;-74
2022/10/30 11:29:01;;;;;;;2.27;1.00;;;24.90;62.70;;;;;;5075549;28;20436;-74
2022/10/30 11:31:33;;;;;;;0.77;0.77;;;24.90;63.10;;;;;;5075920;28;20474;-74
2022/10/30 11:34:27;;;;;;;1.20;1.00;;;25.10;63.50;;;;;;5076073;28;20438;-74
2022/10/30 11:36:54;;;;;;;0.97;0.90;;;25.10;63.10;;;;;;5071506;28;20944;-74
2022/10/30 11:39:23;;;;;;;0.90;0.90;;;25.20;62.80;;;;;;5074703;28;20450;-74
2022/10/30 11:41:56;;;;;;;1.00;0.90;;;25.10;63.10;;;;;;5074692;28;20470;-74
2022/10/30 11:44:25;;;;;;;1.23;1.10;;;25.10;63.30;;;;;;5074657;28;20437;-74
2022/10/30 11:46:52;;;;;;;0.80;0.80;;;25.10;63.80;;;;;;5074047;28;20488;-74
2022/10/30 11:49:35;;;;;;;1.33;1.23;;;25.10;63.60;;;;;;5074402;28;20812;-74
2022/10/30 11:52:02;;;;;;;0.90;0.80;;;25.00;64.20;;;;;;5075390;28;20480;-74
2022/10/30 11:54:29;;;;;;;0.80;0.80;;;25.20;64.30;;;;;;5075981;28;20503;-74
2022/10/30 11:56:57;;;;;;;0.97;0.80;;;25.10;63.90;;;;;;5076771;28;20449;-74
2022/10/30 11:59:25;;;;;;;0.80;0.80;;;25.10;64.10;;;;;;5077559;28;20450;-74
2022/10/30 12:02:00;;;;;;;0.83;0.83;;;25.10;64.10;;;;;;5076793;28;20482;-74
2022/10/30 12:04:31;;;;;;;0.90;0.90;;;25.00;64.90;;;;;;5076747;28;20456;-74
2022/10/30 12:07:09;;;;;;;0.80;0.80;;;25.10;65.00;;;;;;5075924;28;20470;-74
2022/10/30 12:09:43;;;;;;;0.90;0.90;;;25.30;65.20;;;;;;5076248;28;20438;-74
2022/10/30 12:12:21;;;;;;;0.80;0.80;;;25.40;65.00;;;;;;5075600;28;20470;-74
2022/10/30 12:14:48;;;;;;;1.00;0.90;;;25.60;64.70;;;;;;5075800;28;20504;-74
2022/10/30 12:17:16;;;;;;;0.90;0.90;;;25.90;64.10;;;;;;5075402;28;20446;-74
2022/10/30 12:19:49;;;;;;;1.40;0.90;;;26.30;63.30;;;;;;5078763;28;20449;-72
2022/10/30 12:22:27;;;;;;;0.87;0.83;;;26.70;62.30;;;;;;5078777;28;20843;-74
2022/10/30 12:24:54;;;;;;;1.47;1.00;;;27.00;61.20;;;;;;5079174;28;20442;-74
2022/10/30 12:27:21;;;;;;;1.00;0.80;;;27.30;60.60;;;;;;5079099;28;20474;-74
2022/10/30 12:30:01;;;;;;;0.90;0.90;;;27.40;60.20;;;;;;5078922;28;20454;-74
2022/10/30 12:32:34;;;;;;;1.10;1.00;;;27.70;59.70;;;;;;5081083;28;20472;-74
2022/10/30 12:35:05;;;;;;;1.10;0.80;;;28.00;58.60;;;;;;5081317;28;20532;-74
2022/10/30 12:37:36;;;;;;;0.80;0.80;;;27.90;60.10;;;;;;5081858;28;20429;-74
2022/10/30 12:40:06;;;;;;;0.70;0.70;;;28.00;58.70;;;;;;5081212;28;20936;-74
2022/10/30 12:42:39;;;;;;;0.80;0.80;;;27.80;57.60;;;;;;5080024;28;20476;-74
2022/10/30 12:45:14;;;;;;;0.83;0.83;;;28.00;57.40;;;;;;5078179;28;20446;-74
2022/10/30 12:47:45;;;;;;;0.90;0.90;;;27.90;57.60;;;;;;5077933;28;20426;-74
2022/10/30 12:50:21;;;;;;;0.70;0.70;;;28.10;58.00;;;;;;5078070;28;20441;-74
2022/10/30 12:52:55;;;;;;;0.87;0.87;;;28.30;58.80;;;;;;5078467;28;20461;-74
2022/10/30 12:55:27;;;;;;;1.10;1.00;;;28.60;58.70;;;;;;5078364;28;20422;-74
2022/10/30 12:58:02;;;;;;;0.97;0.90;;;28.90;56.90;;;;;;5078872;28;20437;-74
2022/10/30 13:00:36;;;;;;;0.83;0.83;;;29.30;56.80;;;;;;5078339;28;20429;-74
2022/10/30 13:03:20;;;;;;;0.90;0.90;;;29.60;55.70;;;;;;5079023;28;20430;-74
2022/10/30 13:05:51;;;;;;;0.70;0.70;;;29.90;54.00;;;;;;5078697;28;20466;-74
2022/10/30 13:08:25;;;;;;;0.77;0.77;;;30.30;52.70;;;;;;5077964;28;20449;-74
2022/10/30 13:10:54;;;;;;;0.70;0.70;;;30.90;50.20;;;;;;5077213;28;20474;-75
2022/10/30 13:13:24;;;;;;;0.80;0.70;;;31.60;51.00;;;;;;5077959;28;20450;-74
2022/10/30 13:15:53;;;;;;;0.80;0.80;;;32.60;49.40;;;;;;5078631;28;20448;-74
2022/10/30 13:18:22;;;;;;;0.90;0.60;;;33.40;47.30;;;;;;5078290;28;20495;-74
2022/10/30 13:21:01;;;;;;;1.00;0.80;;;34.30;46.80;;;;;;5077872;28;20476;-75
2022/10/30 13:23:34;;;;;;;0.80;0.80;;;34.90;45.40;;;;;;5077727;28;20499;-74
2022/10/30 13:26:12;;;;;;;0.80;0.77;;;35.30;44.20;;;;;;5077831;28;20523;-74
2022/10/30 13:28:47;;;;;;;0.70;0.70;;;35.80;43.60;;;;;;5078032;28;20429;-74
2022/10/30 13:31:20;;;;;;;0.70;0.70;;;36.00;43.20;;;;;;5078018;28;20480;-74
2022/10/30 13:33:55;;;;;;;0.90;0.90;;;36.40;43.30;;;;;;5077222;28;20438;-74
2022/10/30 13:36:32;;;;;;;0.80;0.80;;;36.70;42.50;;;;;;5076608;28;20429;-74
2022/10/30 13:39:03;;;;;;;0.90;0.90;;;37.30;41.00;;;;;;5077159;28;20908;-74
2022/10/30 13:41:41;;;;;;;0.70;0.70;;;37.40;40.90;;;;;;5076761;28;20976;-75
2022/10/30 13:44:18;;;;;;;1.00;1.00;;;37.70;40.10;;;;;;5076477;28;20923;-74
2022/10/30 13:47:03;;;;;;;0.87;0.87;;;38.00;39.60;;;;;;5076168;28;20469;-74
2022/10/30 13:49:44;;;;;;;0.80;0.80;;;38.00;39.60;;;;;;5076210;28;20429;-74
2022/10/30 13:52:14;;;;;;;0.87;0.80;;;38.20;40.00;;;;;;5076349;28;20491;-74
2022/10/30 13:54:46;;;;;;;0.80;0.70;;;38.30;40.10;;;;;;5075721;28;20823;-75
2022/10/30 13:57:19;;;;;;;0.67;0.67;;;38.30;39.70;;;;;;5076230;28;20432;-75
2022/10/30 13:59:58;;;;;;;1.10;1.00;;;38.40;40.20;;;;;;5077196;28;20437;-75
2022/10/30 14:02:47;;;;;;;0.80;0.80;;;38.70;39.60;;;;;;5075772;28;20481;-71
2022/10/30 14:05:26;;;;;;;1.37;0.83;;;37.90;39.60;;;;;;5075538;28;20780;-74
2022/10/30 14:08:02;;;;;;;0.80;0.80;;;37.00;40.00;;;;;;5075315;28;20540;-73
2022/10/30 14:10:45;;;;;;;0.60;0.60;;;36.00;40.70;;;;;;5074945;28;20932;-74
2022/10/30 14:13:21;;;;;;;0.90;0.90;;;35.60;41.50;;;;;;5075082;28;20430;-74
2022/10/30 14:15:47;;;;;;;0.80;0.80;;;35.20;42.40;;;;;;5074977;28;20432;-73
2022/10/30 14:18:26;;;;;;;1.20;1.10;;;34.70;43.30;;;;;;5074670;28;20969;-74
2022/10/30 14:20:54;;;;;;;0.80;0.80;;;34.40;44.00;;;;;;5074632;28;20461;-74
2022/10/30 14:23:24;;;;;;;0.80;0.80;;;34.10;44.90;;;;;;5075087;28;20450;-72
2022/10/30 14:26:20;;;;;;;0.90;0.90;;;33.60;46.00;;;;;;5075261;28;20461;-73
2022/10/30 14:28:49;;;;;;;1.43;1.00;;;32.80;47.60;;;;;;5040151;28;20952;-72
2022/10/30 14:31:18;;;;;;;0.80;0.80;;;32.10;49.20;;;;;;5074642;28;20473;-72
2022/10/30 14:33:48;;;;;;;2.40;0.90;;;31.40;50.70;;;;;;5074808;28;20453;-73
2022/10/30 14:36:20;;;;;;;1.10;0.93;;;30.70;52.20;;;;;;5075000;28;20442;-72
2022/10/30 14:39:01;;;;;;;0.80;0.80;;;30.20;53.40;;;;;;5074440;28;20929;-72
2022/10/30 14:41:44;;;;;;;0.80;0.80;;;29.80;54.90;;;;;;5074139;28;20466;-72
2022/10/30 14:44:50;;;;;;;1.10;1.00;;;29.30;56.40;;;;;;5075413;28;20426;-74
2022/10/30 14:47:50;;;;;;;1.10;1.00;;;28.70;57.70;;;;;;5068608;28;20477;-77
2022/10/30 14:50:23;;;;;;;0.80;0.80;;;28.30;59.20;;;;;;5074889;28;20434;-76
2022/10/30 14:53:08;;;;;;;0.90;0.90;;;28.00;61.30;;;;;;5076443;28;20901;-76
2022/10/30 14:55:52;;;;;;;0.97;0.87;;;27.70;61.80;;;;;;5074418;28;20441;-76
2022/10/30 14:58:25;;;;;;;1.30;1.20;;;27.60;61.90;;;;;;5074379;28;20422;-73
2022/10/30 15:01:13;;;;;;;0.80;0.80;;;27.40;63.20;;;;;;5073553;28;20530;-72
2022/10/30 15:03:49;;;;;;;0.93;0.90;;;27.20;63.00;;;;;;5073615;28;20480;-71
2022/10/30 15:06:24;;;;;;;0.90;0.90;;;26.90;63.90;;;;;;5073544;28;20980;-72
2022/10/30 15:09:18;;;;;;;0.97;0.97;;;26.70;65.00;;;;;;5073990;28;20422;-73
2022/10/30 15:12:07;;;;;;;0.80;0.70;;;26.50;65.30;;;;;;5060126;28;20473;-72
2022/10/30 15:14:38;;;;;;;1.03;0.90;;;26.20;65.50;;;;;;5074135;28;20441;-78
2022/10/30 15:17:05;;;;;;;1.00;0.87;;;26.00;65.70;;;;;;5074135;28;20464;-75
2022/10/30 15:19:34;;;;;;;0.80;0.80;;;25.80;66.80;;;;;;5073757;28;20445;-75
2022/10/30 15:22:01;;;;;;;1.17;0.80;;;25.70;66.70;;;;;;5073662;28;20478;-74
2022/10/30 15:24:29;;;;;;;0.70;0.70;;;25.50;65.60;;;;;;5073442;28;20442;-75
2022/10/30 15:26:59;;;;;;;0.80;0.80;;;25.30;65.80;;;;;;5073542;28;20478;-75
2022/10/30 15:29:31;;;;;;;0.80;0.80;;;25.10;65.40;;;;;;5073934;28;20442;-74
2022/10/30 15:32:00;;;;;;;0.70;0.70;;;25.00;65.10;;;;;;5073708;28;20461;-76
2022/10/30 15:34:28;;;;;;;0.70;0.70;;;24.80;64.40;;;;;;5073511;28;20445;-74
2022/10/30 15:36:55;;;;;;;0.83;0.83;;;24.70;63.50;;;;;;5073174;28;20446;-73
2022/10/30 15:39:22;;;;;;;0.70;0.70;;;24.40;61.80;;;;;;5073341;28;20491;-77
2022/10/30 15:41:52;;;;;;;1.47;0.70;;;24.30;61.90;;;;;;5073185;28;20473;-78
2022/10/30 15:44:22;;;;;;;0.70;0.70;;;24.20;61.40;;;;;;5073561;28;20477;-77
2022/10/30 15:46:52;;;;;;;0.60;0.60;;;24.10;61.20;;;;;;5073491;28;20492;-80
2022/10/30 15:49:27;;;;;;;0.90;0.90;;;24.00;61.50;;;;;;5073561;28;20433;-77
2022/10/30 15:51:53;;;;;;;0.70;0.70;;;23.80;61.20;;;;;;5073338;28;20458;-77
2022/10/30 15:54:23;;;;;;;1.30;0.80;;;23.70;60.90;;;;;;5074566;28;20442;-78
2022/10/30 15:56:53;;;;;;;0.70;0.70;;;23.60;60.50;;;;;;5073034;28;20867;-78
2022/10/30 15:59:23;;;;;;;0.80;0.80;;;23.50;59.20;;;;;;5073669;28;20446;-78
2022/10/30 16:01:53;;;;;;;1.00;0.70;;;23.40;60.00;;;;;;5073073;28;20500;-78
2022/10/30 16:04:23;;;;;;;0.70;0.70;;;23.20;60.60;;;;;;5073395;28;20933;-78
2022/10/30 16:06:51;;;;;;;0.73;0.73;;;23.20;61.60;;;;;;5073629;28;20478;-79
2022/10/30 16:09:18;;;;;;;0.70;0.70;;;23.10;62.70;;;;;;5073561;28;20472;-78
2022/10/30 16:11:45;;;;;;;1.40;1.30;;;23.00;63.60;;;;;;5074323;28;20458;-79
2022/10/30 16:14:16;;;;;;;2.10;0.70;;;22.90;64.30;;;;;;5074547;28;20450;-79
2022/10/30 16:16:44;;;;;;;1.13;0.70;;;22.80;65.00;;;;;;5074943;28;20448;-78
2022/10/30 16:19:21;;;;;;;1.30;0.93;;;22.70;65.60;;;;;;5073623;28;20553;-79
2022/10/30 16:21:48;;;;;;;0.73;0.73;;;22.60;66.60;;;;;;5073138;28;20457;-78
2022/10/30 16:24:17;;;;;;;0.90;0.80;;;22.50;67.50;;;;;;5072970;28;20434;-79
2022/10/30 16:26:44;;;;;;;0.80;0.80;;;22.50;68.30;;;;;;5073440;28;20568;-78
2022/10/30 16:29:26;;;;;;;0.87;0.80;;;22.40;68.70;;;;;;5073128;28;20824;-78
2022/10/30 16:31:54;;;;;;;1.20;0.90;;;22.30;69.10;;;;;;5073403;28;20812;-79
2022/10/30 16:34:26;;;;;;;0.90;0.90;;;22.30;69.30;;;;;;5073256;28;20853;-79
2022/10/30 16:36:53;;;;;;;1.03;0.80;;;22.20;69.50;;;;;;5073610;28;20426;-79
2022/10/30 16:39:21;;;;;;;0.73;0.73;;;22.20;69.40;;;;;;5073160;28;20449;-79
2022/10/30 16:41:48;;;;;;;1.00;0.87;;;22.10;69.60;;;;;;5072958;28;20476;-78
2022/10/30 16:44:19;;;;;;;1.03;0.93;;;22.10;69.60;;;;;;5073237;28;20473;-79
2022/10/30 16:46:52;;;;;;;0.63;0.63;;;22.10;69.70;;;;;;5073802;28;20473;-79
2022/10/30 16:49:22;;;;;;;0.83;0.80;;;22.00;69.80;;;;;;5072917;28;20960;-78
2022/10/30 16:51:57;;;;;;;0.90;0.90;;;21.90;70.00;;;;;;5072928;28;20849;-79
2022/10/30 16:54:26;;;;;;;1.20;0.70;;;21.90;70.00;;;;;;5073791;28;20443;-78
2022/10/30 16:56:55;;;;;;;0.90;0.80;;;21.80;70.20;;;;;;5072918;28;20975;-78
2022/10/30 16:59:30;;;;;;;0.90;0.90;;;21.70;70.50;;;;;;5072392;28;20945;-78
2022/10/30 17:02:04;;;;;;;1.00;0.90;;;21.60;70.60;;;;;;5072433;28;20484;-78
2022/10/30 17:04:32;;;;;;;0.70;0.70;;;21.60;70.70;;;;;;5074269;28;20445;-78
2022/10/30 17:07:15;;;;;;;0.80;0.80;;;21.60;70.70;;;;;;5076185;28;20477;-78